sensor_id;sensor_type;location;lat;lon;timestamp;temperature;humidity
49861;DHT22;35761;48.826;9.238;2022-10-31T00:01:33;14.20;60.60
49861;DHT22;35761;48.826;9.238;2022-10-31T00:04:03;14.10;60.90
49861;DHT22;35761;48.826;9.238;2022-10-31T00:06:32;14.10;61.10
49861;DHT22;35761;48.826;9.238;2022-10-31T00:09:03;14.10;61.10
49861;DHT22;35761;48.826;9.238;2022-10-31T00:11:32;14.10;61.20
49861;DHT22;35761;48.826;9.238;2022-10-31T00:14:00;14.10;60.80
49861;DHT22;35761;48.826;9.238;2022-10-31T00:16:30;14.10;60.60
49861;DHT22;35761;48.826;9.238;2022-10-31T00:19:00;14.00;60.90
49861;DHT22;35761;48.826;9.238;2022-10-31T00:21:31;14.10;60.50
49861;DHT22;35761;48.826;9.238;2022-10-31T00:24:00;14.00;60.60
49861;DHT22;35761;48.826;9.238;2022-10-31T00:26:29;14.00;60.60
49861;DHT22;35761;48.826;9.238;2022-10-31T00:28:58;13.90;60.50
49861;DHT22;35761;48.826;9.238;2022-10-31T00:31:28;13.90;60.10
49861;DHT22;35761;48.826;9.238;2022-10-31T00:33:57;13.80;60.60
49861;DHT22;35761;48.826;9.238;2022-10-31T00:36:26;13.90;61.30
49861;DHT22;35761;48.826;9.238;2022-10-31T00:38:54;13.80;61.70
49861;DHT22;35761;48.826;9.238;2022-10-31T00:41:23;13.80;62.10
49861;DHT22;35761;48.826;9.238;2022-10-31T00:43:52;13.80;62.30
49861;DHT22;35761;48.826;9.238;2022-10-31T00:46:20;13.80;62.30
49861;DHT22;35761;48.826;9.238;2022-10-31T00:48:51;13.80;62.20
49861;DHT22;35761;48.826;9.238;2022-10-31T00:51:20;13.80;62.30
49861;DHT22;35761;48.826;9.238;2022-10-31T00:53:48;13.80;62.30
49861;DHT22;35761;48.826;9.238;2022-10-31T00:56:17;13.70;61.80
49861;DHT22;35761;48.826;9.238;2022-10-31T00:58:45;13.70;61.70
49861;DHT22;35761;48.826;9.238;2022-10-31T01:01:14;13.70;61.90
49861;DHT22;35761;48.826;9.238;2022-10-31T01:03:42;13.60;62.00
49861;DHT22;35761;48.826;9.238;2022-10-31T01:06:13;13.70;62.20
49861;DHT22;35761;48.826;9.238;2022-10-31T01:08:42;13.60;61.80
49861;DHT22;35761;48.826;9.238;2022-10-31T01:11:16;13.60;61.70
49861;DHT22;35761;48.826;9.238;2022-10-31T01:13:46;13.60;62.00
49861;DHT22;35761;48.826;9.238;2022-10-31T01:16:17;13.50;62.10
49861;DHT22;35761;48.826;9.238;2022-10-31T01:18:49;13.50;61.90
49861;DHT22;35761;48.826;9.238;2022-10-31T01:21:21;13.50;61.90
49861;DHT22;35761;48.826;9.238;2022-10-31T01:23:52;13.40;63.30
49861;DHT22;35761;48.826;9.238;2022-10-31T01:26:23;13.30;62.90
49861;DHT22;35761;48.826;9.238;2022-10-31T01:28:54;13.30;63.00
49861;DHT22;35761;48.826;9.238;2022-10-31T01:31:28;13.30;63.00
49861;DHT22;35761;48.826;9.238;2022-10-31T01:33:58;13.20;63.40
49861;DHT22;35761;48.826;9.238;2022-10-31T01:36:29;13.20;63.70
49861;DHT22;35761;48.826;9.238;2022-10-31T01:39:00;13.20;63.70
49861;DHT22;35761;48.826;9.238;2022-10-31T01:41:32;13.20;63.80
49861;DHT22;35761;48.826;9.238;2022-10-31T01:47:41;13.20;64.00
49861;DHT22;35761;48.826;9.238;2022-10-31T01:50:23;13.20;63.30
49861;DHT22;35761;48.826;9.238;2022-10-31T01:52:55;13.20;63.00
49861;DHT22;35761;48.826;9.238;2022-10-31T01:55:26;13.20;63.30
49861;DHT22;35761;48.826;9.238;2022-10-31T01:57:59;13.10;63.20
49861;DHT22;35761;48.826;9.238;2022-10-31T02:00:32;13.10;63.50
49861;DHT22;35761;48.826;9.238;2022-10-31T02:03:01;13.10;63.40
49861;DHT22;35761;48.826;9.238;2022-10-31T02:05:30;13.10;63.00
49861;DHT22;35761;48.826;9.238;2022-10-31T02:08:02;13.00;63.00
49861;DHT22;35761;48.826;9.238;2022-10-31T02:10:35;13.00;63.40
49861;DHT22;35761;48.826;9.238;2022-10-31T02:13:08;13.00;63.70
49861;DHT22;35761;48.826;9.238;2022-10-31T02:15:48;13.00;63.80
49861;DHT22;35761;48.826;9.238;2022-10-31T02:18:18;12.90;63.90
49861;DHT22;35761;48.826;9.238;2022-10-31T02:20:56;12.90;64.20
49861;DHT22;35761;48.826;9.238;2022-10-31T02:26:54;12.90;64.50
49861;DHT22;35761;48.826;9.238;2022-10-31T02:29:53;12.70;65.00
49861;DHT22;35761;48.826;9.238;2022-10-31T02:35:50;12.70;65.10
49861;DHT22;35761;48.826;9.238;2022-10-31T02:38:34;12.60;65.40
49861;DHT22;35761;48.826;9.238;2022-10-31T02:41:19;12.60;65.90
49861;DHT22;35761;48.826;9.238;2022-10-31T02:44:07;12.60;65.80
49861;DHT22;35761;48.826;9.238;2022-10-31T02:46:44;12.50;66.00
49861;DHT22;35761;48.826;9.238;2022-10-31T02:49:23;12.50;66.00
49861;DHT22;35761;48.826;9.238;2022-10-31T02:51:55;12.50;65.80
49861;DHT22;35761;48.826;9.238;2022-10-31T02:54:24;12.40;66.70
49861;DHT22;35761;48.826;9.238;2022-10-31T02:56:57;12.50;65.90
49861;DHT22;35761;48.826;9.238;2022-10-31T02:59:28;12.50;65.90
49861;DHT22;35761;48.826;9.238;2022-10-31T03:02:16;12.40;66.10
49861;DHT22;35761;48.826;9.238;2022-10-31T03:05:05;12.40;66.10
49861;DHT22;35761;48.826;9.238;2022-10-31T03:07:50;12.40;66.10
49861;DHT22;35761;48.826;9.238;2022-10-31T03:10:28;12.30;66.40
49861;DHT22;35761;48.826;9.238;2022-10-31T03:13:08;12.30;67.00
49861;DHT22;35761;48.826;9.238;2022-10-31T03:15:42;12.30;66.80
49861;DHT22;35761;48.826;9.238;2022-10-31T03:18:15;12.30;66.80
49861;DHT22;35761;48.826;9.238;2022-10-31T03:20:51;12.30;66.90
49861;DHT22;35761;48.826;9.238;2022-10-31T03:23:23;12.30;66.70
49861;DHT22;35761;48.826;9.238;2022-10-31T03:25:53;12.20;66.30
49861;DHT22;35761;48.826;9.238;2022-10-31T03:28:30;12.30;66.50
49861;DHT22;35761;48.826;9.238;2022-10-31T03:31:04;12.30;66.30
49861;DHT22;35761;48.826;9.238;2022-10-31T03:33:38;12.20;65.80
49861;DHT22;35761;48.826;9.238;2022-10-31T03:36:10;12.20;65.60
49861;DHT22;35761;48.826;9.238;2022-10-31T03:38:40;12.20;65.80
49861;DHT22;35761;48.826;9.238;2022-10-31T03:41:12;12.20;65.90
49861;DHT22;35761;48.826;9.238;2022-10-31T03:43:57;12.20;66.20
49861;DHT22;35761;48.826;9.238;2022-10-31T03:46:27;12.20;66.10
49861;DHT22;35761;48.826;9.238;2022-10-31T03:48:58;12.10;65.80
49861;DHT22;35761;48.826;9.238;2022-10-31T03:51:34;12.10;66.00
49861;DHT22;35761;48.826;9.238;2022-10-31T03:54:11;12.10;66.00
49861;DHT22;35761;48.826;9.238;2022-10-31T03:56:46;12.10;65.90
49861;DHT22;35761;48.826;9.238;2022-10-31T03:59:21;12.10;65.90
49861;DHT22;35761;48.826;9.238;2022-10-31T04:01:55;12.10;66.10
49861;DHT22;35761;48.826;9.238;2022-10-31T04:04:27;12.10;65.60
49861;DHT22;35761;48.826;9.238;2022-10-31T04:06:58;12.10;65.50
49861;DHT22;35761;48.826;9.238;2022-10-31T04:09:30;12.00;65.50
49861;DHT22;35761;48.826;9.238;2022-10-31T04:12:03;12.00;65.10
49861;DHT22;35761;48.826;9.238;2022-10-31T04:14:47;12.00;65.10
49861;DHT22;35761;48.826;9.238;2022-10-31T04:17:19;12.00;65.20
49861;DHT22;35761;48.826;9.238;2022-10-31T04:19:49;12.00;65.50
49861;DHT22;35761;48.826;9.238;2022-10-31T04:22:19;11.90;65.70
49861;DHT22;35761;48.826;9.238;2022-10-31T04:24:48;11.90;66.00
49861;DHT22;35761;48.826;9.238;2022-10-31T04:27:17;11.80;66.20
49861;DHT22;35761;48.826;9.238;2022-10-31T04:29:46;11.80;67.10
49861;DHT22;35761;48.826;9.238;2022-10-31T04:32:17;11.80;66.40
49861;DHT22;35761;48.826;9.238;2022-10-31T04:34:46;11.80;66.50
49861;DHT22;35761;48.826;9.238;2022-10-31T04:37:14;11.80;66.80
49861;DHT22;35761;48.826;9.238;2022-10-31T04:39:44;11.80;66.80
49861;DHT22;35761;48.826;9.238;2022-10-31T04:42:32;11.80;66.70
49861;DHT22;35761;48.826;9.238;2022-10-31T04:45:03;11.70;67.10
49861;DHT22;35761;48.826;9.238;2022-10-31T04:47:34;11.70;67.30
49861;DHT22;35761;48.826;9.238;2022-10-31T04:50:04;11.70;67.40
49861;DHT22;35761;48.826;9.238;2022-10-31T04:52:39;11.60;67.60
49861;DHT22;35761;48.826;9.238;2022-10-31T04:55:11;11.60;67.70
49861;DHT22;35761;48.826;9.238;2022-10-31T04:57:59;11.60;67.70
49861;DHT22;35761;48.826;9.238;2022-10-31T05:00:28;11.60;67.40
49861;DHT22;35761;48.826;9.238;2022-10-31T05:02:57;11.60;66.50
49861;DHT22;35761;48.826;9.238;2022-10-31T05:05:29;11.60;66.10
49861;DHT22;35761;48.826;9.238;2022-10-31T05:08:00;11.50;65.40
49861;DHT22;35761;48.826;9.238;2022-10-31T05:10:32;11.50;65.20
49861;DHT22;35761;48.826;9.238;2022-10-31T05:13:02;11.50;65.40
49861;DHT22;35761;48.826;9.238;2022-10-31T05:15:50;11.50;65.60
49861;DHT22;35761;48.826;9.238;2022-10-31T05:18:37;11.40;65.20
49861;DHT22;35761;48.826;9.238;2022-10-31T05:21:25;11.40;64.80
49861;DHT22;35761;48.826;9.238;2022-10-31T05:23:58;11.40;65.30
49861;DHT22;35761;48.826;9.238;2022-10-31T05:26:29;11.40;65.50
49861;DHT22;35761;48.826;9.238;2022-10-31T05:28:57;11.30;64.70
49861;DHT22;35761;48.826;9.238;2022-10-31T05:31:26;11.30;65.90
49861;DHT22;35761;48.826;9.238;2022-10-31T05:33:54;11.30;66.30
49861;DHT22;35761;48.826;9.238;2022-10-31T05:36:41;11.30;66.20
49861;DHT22;35761;48.826;9.238;2022-10-31T05:39:12;11.30;66.20
49861;DHT22;35761;48.826;9.238;2022-10-31T05:41:48;11.30;65.60
49861;DHT22;35761;48.826;9.238;2022-10-31T05:44:22;11.30;65.50
49861;DHT22;35761;48.826;9.238;2022-10-31T05:47:03;11.20;65.50
49861;DHT22;35761;48.826;9.238;2022-10-31T05:49:49;11.20;65.50
49861;DHT22;35761;48.826;9.238;2022-10-31T05:52:55;11.20;65.60
49861;DHT22;35761;48.826;9.238;2022-10-31T05:55:31;11.10;65.80
49861;DHT22;35761;48.826;9.238;2022-10-31T05:58:09;11.00;66.30
49861;DHT22;35761;48.826;9.238;2022-10-31T06:00:41;11.00;66.90
49861;DHT22;35761;48.826;9.238;2022-10-31T06:03:11;10.90;67.60
49861;DHT22;35761;48.826;9.238;2022-10-31T06:05:45;10.90;67.90
49861;DHT22;35761;48.826;9.238;2022-10-31T06:08:22;10.90;68.10
49861;DHT22;35761;48.826;9.238;2022-10-31T06:10:51;10.80;68.40
49861;DHT22;35761;48.826;9.238;2022-10-31T06:13:35;10.90;68.70
49861;DHT22;35761;48.826;9.238;2022-10-31T06:16:13;10.80;68.70
49861;DHT22;35761;48.826;9.238;2022-10-31T06:18:43;10.70;69.10
49861;DHT22;35761;48.826;9.238;2022-10-31T06:21:13;10.80;69.30
49861;DHT22;35761;48.826;9.238;2022-10-31T06:23:47;10.70;69.40
49861;DHT22;35761;48.826;9.238;2022-10-31T06:26:35;10.80;69.60
49861;DHT22;35761;48.826;9.238;2022-10-31T06:29:05;10.70;69.60
49861;DHT22;35761;48.826;9.238;2022-10-31T06:31:54;10.70;69.50
49861;DHT22;35761;48.826;9.238;2022-10-31T06:34:22;10.70;69.60
49861;DHT22;35761;48.826;9.238;2022-10-31T06:36:51;10.70;69.80
49861;DHT22;35761;48.826;9.238;2022-10-31T06:39:22;10.70;70.60
49861;DHT22;35761;48.826;9.238;2022-10-31T06:41:52;10.70;70.10
49861;DHT22;35761;48.826;9.238;2022-10-31T06:44:23;10.70;70.40
49861;DHT22;35761;48.826;9.238;2022-10-31T06:46:52;10.70;70.70
49861;DHT22;35761;48.826;9.238;2022-10-31T06:49:39;10.70;70.70
49861;DHT22;35761;48.826;9.238;2022-10-31T06:52:12;10.70;70.80
49861;DHT22;35761;48.826;9.238;2022-10-31T06:54:41;10.70;71.00
49861;DHT22;35761;48.826;9.238;2022-10-31T06:57:09;10.70;71.40
49861;DHT22;35761;48.826;9.238;2022-10-31T06:59:40;10.70;71.40
49861;DHT22;35761;48.826;9.238;2022-10-31T07:02:09;10.80;71.40
49861;DHT22;35761;48.826;9.238;2022-10-31T07:04:41;10.80;72.00
49861;DHT22;35761;48.826;9.238;2022-10-31T07:07:13;10.80;70.90
49861;DHT22;35761;48.826;9.238;2022-10-31T07:09:41;10.80;70.90
49861;DHT22;35761;48.826;9.238;2022-10-31T07:12:13;10.80;71.00
49861;DHT22;35761;48.826;9.238;2022-10-31T07:14:49;10.90;71.10
49861;DHT22;35761;48.826;9.238;2022-10-31T07:17:18;10.90;70.70
49861;DHT22;35761;48.826;9.238;2022-10-31T07:19:46;10.90;70.60
49861;DHT22;35761;48.826;9.238;2022-10-31T07:22:16;10.90;71.60
49861;DHT22;35761;48.826;9.238;2022-10-31T07:24:45;10.90;71.40
49861;DHT22;35761;48.826;9.238;2022-10-31T07:27:36;10.90;71.50
49861;DHT22;35761;48.826;9.238;2022-10-31T07:30:12;10.90;71.50
49861;DHT22;35761;48.826;9.238;2022-10-31T07:32:43;10.90;71.60
49861;DHT22;35761;48.826;9.238;2022-10-31T07:35:15;11.00;71.70
49861;DHT22;35761;48.826;9.238;2022-10-31T07:37:54;11.00;72.00
49861;DHT22;35761;48.826;9.238;2022-10-31T07:40:23;11.00;72.00
49861;DHT22;35761;48.826;9.238;2022-10-31T07:42:53;11.00;72.00
49861;DHT22;35761;48.826;9.238;2022-10-31T07:45:49;11.00;72.10
49861;DHT22;35761;48.826;9.238;2022-10-31T07:48:48;11.00;72.20
49861;DHT22;35761;48.826;9.238;2022-10-31T07:51:35;11.00;72.40
49861;DHT22;35761;48.826;9.238;2022-10-31T07:54:34;11.10;72.80
49861;DHT22;35761;48.826;9.238;2022-10-31T07:57:02;11.10;72.60
49861;DHT22;35761;48.826;9.238;2022-10-31T07:59:31;11.10;72.60
49861;DHT22;35761;48.826;9.238;2022-10-31T08:02:01;11.10;72.40
49861;DHT22;35761;48.826;9.238;2022-10-31T08:04:29;11.10;72.10
49861;DHT22;35761;48.826;9.238;2022-10-31T08:07:24;11.20;72.10
49861;DHT22;35761;48.826;9.238;2022-10-31T08:10:00;11.20;72.20
49861;DHT22;35761;48.826;9.238;2022-10-31T08:12:30;11.30;72.30
49861;DHT22;35761;48.826;9.238;2022-10-31T08:14:59;11.20;71.70
49861;DHT22;35761;48.826;9.238;2022-10-31T08:17:30;11.30;72.20
49861;DHT22;35761;48.826;9.238;2022-10-31T08:20:00;11.30;71.00
49861;DHT22;35761;48.826;9.238;2022-10-31T08:22:32;11.30;70.70
49861;DHT22;35761;48.826;9.238;2022-10-31T08:25:07;11.30;70.90
49861;DHT22;35761;48.826;9.238;2022-10-31T08:27:36;11.30;71.80
49861;DHT22;35761;48.826;9.238;2022-10-31T08:30:08;11.30;72.60
49861;DHT22;35761;48.826;9.238;2022-10-31T08:32:43;11.40;72.70
49861;DHT22;35761;48.826;9.238;2022-10-31T08:35:37;11.40;72.60
49861;DHT22;35761;48.826;9.238;2022-10-31T08:38:41;11.40;72.30
49861;DHT22;35761;48.826;9.238;2022-10-31T08:41:10;11.40;72.00
49861;DHT22;35761;48.826;9.238;2022-10-31T08:43:38;11.50;72.20
49861;DHT22;35761;48.826;9.238;2022-10-31T08:46:07;11.50;73.10
49861;DHT22;35761;48.826;9.238;2022-10-31T08:48:37;11.50;74.10
49861;DHT22;35761;48.826;9.238;2022-10-31T08:51:06;11.60;74.70
49861;DHT22;35761;48.826;9.238;2022-10-31T08:53:36;11.60;75.20
49861;DHT22;35761;48.826;9.238;2022-10-31T08:56:25;11.70;75.70
49861;DHT22;35761;48.826;9.238;2022-10-31T08:58:53;11.70;76.10
49861;DHT22;35761;48.826;9.238;2022-10-31T09:01:32;11.70;76.40
49861;DHT22;35761;48.826;9.238;2022-10-31T09:04:02;11.80;77.10
49861;DHT22;35761;48.826;9.238;2022-10-31T09:06:30;11.90;77.10
49861;DHT22;35761;48.826;9.238;2022-10-31T09:08:59;11.90;76.30
49861;DHT22;35761;48.826;9.238;2022-10-31T09:11:29;11.90;76.60
49861;DHT22;35761;48.826;9.238;2022-10-31T09:14:21;12.00;77.20
49861;DHT22;35761;48.826;9.238;2022-10-31T09:17:18;12.00;78.00
49861;DHT22;35761;48.826;9.238;2022-10-31T09:20:09;12.10;77.00
49861;DHT22;35761;48.826;9.238;2022-10-31T09:22:38;12.10;76.90
49861;DHT22;35761;48.826;9.238;2022-10-31T09:25:07;12.20;75.60
49861;DHT22;35761;48.826;9.238;2022-10-31T09:27:38;12.20;73.60
49861;DHT22;35761;48.826;9.238;2022-10-31T09:30:07;12.30;73.10
49861;DHT22;35761;48.826;9.238;2022-10-31T09:32:37;12.30;73.20
49861;DHT22;35761;48.826;9.238;2022-10-31T09:35:08;12.30;73.10
49861;DHT22;35761;48.826;9.238;2022-10-31T09:37:36;12.30;73.10
49861;DHT22;35761;48.826;9.238;2022-10-31T09:40:05;12.40;72.50
49861;DHT22;35761;48.826;9.238;2022-10-31T09:42:53;12.40;71.60
49861;DHT22;35761;48.826;9.238;2022-10-31T09:45:31;12.50;71.40
49861;DHT22;35761;48.826;9.238;2022-10-31T09:48:27;12.50;71.30
49861;DHT22;35761;48.826;9.238;2022-10-31T09:51:17;12.50;71.60
49861;DHT22;35761;48.826;9.238;2022-10-31T09:54:03;12.50;72.00
49861;DHT22;35761;48.826;9.238;2022-10-31T09:56:34;12.60;72.30
49861;DHT22;35761;48.826;9.238;2022-10-31T09:59:06;12.60;71.90
49861;DHT22;35761;48.826;9.238;2022-10-31T10:01:45;12.70;71.20
49861;DHT22;35761;48.826;9.238;2022-10-31T10:04:20;12.80;70.50
49861;DHT22;35761;48.826;9.238;2022-10-31T10:07:16;12.80;71.00
49861;DHT22;35761;48.826;9.238;2022-10-31T10:10:24;12.80;71.10
49861;DHT22;35761;48.826;9.238;2022-10-31T10:13:30;12.90;71.60
49861;DHT22;35761;48.826;9.238;2022-10-31T10:16:24;12.90;71.00
49861;DHT22;35761;48.826;9.238;2022-10-31T10:19:09;13.10;69.30
49861;DHT22;35761;48.826;9.238;2022-10-31T10:21:51;13.10;68.30
49861;DHT22;35761;48.826;9.238;2022-10-31T10:24:46;13.20;67.00
49861;DHT22;35761;48.826;9.238;2022-10-31T10:27:30;13.30;65.70
49861;DHT22;35761;48.826;9.238;2022-10-31T10:30:13;13.30;64.30
49861;DHT22;35761;48.826;9.238;2022-10-31T10:32:46;13.40;65.30
49861;DHT22;35761;48.826;9.238;2022-10-31T10:35:23;13.40;64.30
49861;DHT22;35761;48.826;9.238;2022-10-31T10:37:58;13.50;65.30
49861;DHT22;35761;48.826;9.238;2022-10-31T10:40:31;13.50;67.50
49861;DHT22;35761;48.826;9.238;2022-10-31T10:43:21;13.50;66.90
49861;DHT22;35761;48.826;9.238;2022-10-31T10:46:04;13.70;63.90
49861;DHT22;35761;48.826;9.238;2022-10-31T10:49:03;13.70;61.50
49861;DHT22;35761;48.826;9.238;2022-10-31T10:51:47;13.80;61.30
49861;DHT22;35761;48.826;9.238;2022-10-31T10:54:43;13.80;59.90
49861;DHT22;35761;48.826;9.238;2022-10-31T10:57:22;13.80;60.50
49861;DHT22;35761;48.826;9.238;2022-10-31T10:59:59;13.90;63.10
49861;DHT22;35761;48.826;9.238;2022-10-31T11:02:32;13.90;61.10
49861;DHT22;35761;48.826;9.238;2022-10-31T11:05:01;14.00;61.10
49861;DHT22;35761;48.826;9.238;2022-10-31T11:07:38;14.00;62.40
49861;DHT22;35761;48.826;9.238;2022-10-31T11:10:12;14.10;60.90
49861;DHT22;35761;48.826;9.238;2022-10-31T11:12:45;14.10;60.60
49861;DHT22;35761;48.826;9.238;2022-10-31T11:15:26;14.20;60.40
49861;DHT22;35761;48.826;9.238;2022-10-31T11:17:56;14.30;58.90
49861;DHT22;35761;48.826;9.238;2022-10-31T11:20:30;14.30;58.60
49861;DHT22;35761;48.826;9.238;2022-10-31T11:23:16;14.40;57.90
49861;DHT22;35761;48.826;9.238;2022-10-31T11:25:50;14.40;58.30
49861;DHT22;35761;48.826;9.238;2022-10-31T11:28:21;14.50;61.00
49861;DHT22;35761;48.826;9.238;2022-10-31T11:30:52;14.50;62.90
49861;DHT22;35761;48.826;9.238;2022-10-31T11:33:26;14.60;61.80
49861;DHT22;35761;48.826;9.238;2022-10-31T11:35:58;14.70;59.10
49861;DHT22;35761;48.826;9.238;2022-10-31T11:38:32;14.80;57.90
49861;DHT22;35761;48.826;9.238;2022-10-31T11:41:11;15.00;57.60
49861;DHT22;35761;48.826;9.238;2022-10-31T11:43:50;15.00;56.80
49861;DHT22;35761;48.826;9.238;2022-10-31T11:46:22;15.10;57.10
49861;DHT22;35761;48.826;9.238;2022-10-31T11:48:54;15.20;58.20
49861;DHT22;35761;48.826;9.238;2022-10-31T11:51:26;15.20;57.80
49861;DHT22;35761;48.826;9.238;2022-10-31T11:53:57;15.30;58.30
49861;DHT22;35761;48.826;9.238;2022-10-31T11:56:38;15.40;57.30
49861;DHT22;35761;48.826;9.238;2022-10-31T11:59:18;15.50;57.60
49861;DHT22;35761;48.826;9.238;2022-10-31T12:01:52;15.50;58.70
49861;DHT22;35761;48.826;9.238;2022-10-31T12:04:33;15.60;56.00
49861;DHT22;35761;48.826;9.238;2022-10-31T12:07:06;15.70;54.60
49861;DHT22;35761;48.826;9.238;2022-10-31T12:09:35;15.80;53.60
49861;DHT22;35761;48.826;9.238;2022-10-31T12:12:33;15.80;51.10
49861;DHT22;35761;48.826;9.238;2022-10-31T12:15:29;15.80;51.70
49861;DHT22;35761;48.826;9.238;2022-10-31T12:18:22;15.90;51.90
49861;DHT22;35761;48.826;9.238;2022-10-31T12:21:14;15.90;52.70
49861;DHT22;35761;48.826;9.238;2022-10-31T12:23:56;15.90;53.50
49861;DHT22;35761;48.826;9.238;2022-10-31T12:26:36;15.90;53.30
49861;DHT22;35761;48.826;9.238;2022-10-31T12:29:23;16.00;53.10
49861;DHT22;35761;48.826;9.238;2022-10-31T12:32:11;16.10;54.90
49861;DHT22;35761;48.826;9.238;2022-10-31T12:34:55;16.20;56.70
49861;DHT22;35761;48.826;9.238;2022-10-31T12:37:52;16.20;56.80
49861;DHT22;35761;48.826;9.238;2022-10-31T12:40:40;16.30;54.20
49861;DHT22;35761;48.826;9.238;2022-10-31T12:43:25;16.40;54.70
49861;DHT22;35761;48.826;9.238;2022-10-31T12:46:04;16.40;54.50
49861;DHT22;35761;48.826;9.238;2022-10-31T12:48:52;16.40;49.50
49861;DHT22;35761;48.826;9.238;2022-10-31T12:51:38;16.40;47.50
49861;DHT22;35761;48.826;9.238;2022-10-31T12:54:26;16.50;48.70
49861;DHT22;35761;48.826;9.238;2022-10-31T12:57:09;16.50;48.60
49861;DHT22;35761;48.826;9.238;2022-10-31T12:59:45;16.50;46.60
49861;DHT22;35761;48.826;9.238;2022-10-31T13:02:19;16.50;46.90
49861;DHT22;35761;48.826;9.238;2022-10-31T13:04:55;16.40;46.30
49861;DHT22;35761;48.826;9.238;2022-10-31T13:07:28;16.40;47.40
49861;DHT22;35761;48.826;9.238;2022-10-31T13:10:02;16.40;47.90
49861;DHT22;35761;48.826;9.238;2022-10-31T13:12:33;16.40;46.90
49861;DHT22;35761;48.826;9.238;2022-10-31T13:15:11;16.40;48.90
49861;DHT22;35761;48.826;9.238;2022-10-31T13:17:44;16.40;50.90
49861;DHT22;35761;48.826;9.238;2022-10-31T13:20:20;16.40;52.70
49861;DHT22;35761;48.826;9.238;2022-10-31T13:22:55;16.50;54.20
49861;DHT22;35761;48.826;9.238;2022-10-31T13:25:28;16.40;53.00
49861;DHT22;35761;48.826;9.238;2022-10-31T13:28:01;16.40;52.90
49861;DHT22;35761;48.826;9.238;2022-10-31T13:30:33;16.50;54.50
49861;DHT22;35761;48.826;9.238;2022-10-31T13:33:09;16.40;56.50
49861;DHT22;35761;48.826;9.238;2022-10-31T13:35:48;16.40;56.60
49861;DHT22;35761;48.826;9.238;2022-10-31T13:38:23;16.50;57.40
49861;DHT22;35761;48.826;9.238;2022-10-31T13:41:00;16.50;58.90
49861;DHT22;35761;48.826;9.238;2022-10-31T13:43:35;16.50;58.30
49861;DHT22;35761;48.826;9.238;2022-10-31T13:46:22;16.50;58.80
49861;DHT22;35761;48.826;9.238;2022-10-31T13:48:51;16.60;56.40
49861;DHT22;35761;48.826;9.238;2022-10-31T13:51:29;16.80;58.40
49861;DHT22;35761;48.826;9.238;2022-10-31T13:54:00;17.00;56.70
49861;DHT22;35761;48.826;9.238;2022-10-31T13:56:31;17.10;49.50
49861;DHT22;35761;48.826;9.238;2022-10-31T13:59:16;17.20;49.10
49861;DHT22;35761;48.826;9.238;2022-10-31T14:01:49;17.30;48.90
49861;DHT22;35761;48.826;9.238;2022-10-31T14:04:22;17.40;54.40
49861;DHT22;35761;48.826;9.238;2022-10-31T14:06:56;17.50;55.60
49861;DHT22;35761;48.826;9.238;2022-10-31T14:09:32;17.40;55.80
49861;DHT22;35761;48.826;9.238;2022-10-31T14:12:05;17.50;53.70
49861;DHT22;35761;48.826;9.238;2022-10-31T14:14:44;17.50;53.70
49861;DHT22;35761;48.826;9.238;2022-10-31T14:17:21;17.50;54.60
49861;DHT22;35761;48.826;9.238;2022-10-31T14:20:19;17.50;49.70
49861;DHT22;35761;48.826;9.238;2022-10-31T14:23:32;17.50;46.40
49861;DHT22;35761;48.826;9.238;2022-10-31T14:26:17;17.50;46.00
49861;DHT22;35761;48.826;9.238;2022-10-31T14:28:48;17.60;51.30
49861;DHT22;35761;48.826;9.238;2022-10-31T14:31:30;17.60;53.60
49861;DHT22;35761;48.826;9.238;2022-10-31T14:34:15;17.70;52.60
49861;DHT22;35761;48.826;9.238;2022-10-31T14:37:03;17.60;53.20
49861;DHT22;35761;48.826;9.238;2022-10-31T14:39:58;17.70;53.20
49861;DHT22;35761;48.826;9.238;2022-10-31T14:42:41;17.70;52.10
49861;DHT22;35761;48.826;9.238;2022-10-31T14:45:29;17.70;48.70
49861;DHT22;35761;48.826;9.238;2022-10-31T14:48:12;17.70;50.50
49861;DHT22;35761;48.826;9.238;2022-10-31T14:50:51;17.70;53.60
49861;DHT22;35761;48.826;9.238;2022-10-31T14:53:24;17.70;53.50
49861;DHT22;35761;48.826;9.238;2022-10-31T14:55:56;17.60;54.20
49861;DHT22;35761;48.826;9.238;2022-10-31T14:58:36;17.60;54.00
49861;DHT22;35761;48.826;9.238;2022-10-31T15:01:07;17.60;54.70
49861;DHT22;35761;48.826;9.238;2022-10-31T15:03:45;17.50;55.30
49861;DHT22;35761;48.826;9.238;2022-10-31T15:06:40;17.50;54.20
49861;DHT22;35761;48.826;9.238;2022-10-31T15:09:21;17.50;54.80
49861;DHT22;35761;48.826;9.238;2022-10-31T15:11:52;17.50;54.40
49861;DHT22;35761;48.826;9.238;2022-10-31T15:14:23;17.50;55.60
49861;DHT22;35761;48.826;9.238;2022-10-31T15:16:53;17.50;54.10
49861;DHT22;35761;48.826;9.238;2022-10-31T15:19:24;17.50;52.00
49861;DHT22;35761;48.826;9.238;2022-10-31T15:21:55;17.50;54.10
49861;DHT22;35761;48.826;9.238;2022-10-31T15:24:29;17.50;54.70
49861;DHT22;35761;48.826;9.238;2022-10-31T15:27:02;17.40;55.00
49861;DHT22;35761;48.826;9.238;2022-10-31T15:29:31;17.40;55.10
49861;DHT22;35761;48.826;9.238;2022-10-31T15:32:01;17.30;55.20
49861;DHT22;35761;48.826;9.238;2022-10-31T15:34:39;17.30;55.70
49861;DHT22;35761;48.826;9.238;2022-10-31T15:37:10;17.30;55.90
49861;DHT22;35761;48.826;9.238;2022-10-31T15:39:40;17.20;54.10
49861;DHT22;35761;48.826;9.238;2022-10-31T15:42:19;17.20;51.90
49861;DHT22;35761;48.826;9.238;2022-10-31T15:44:52;17.20;53.70
49861;DHT22;35761;48.826;9.238;2022-10-31T15:47:25;17.20;54.60
49861;DHT22;35761;48.826;9.238;2022-10-31T15:49:55;17.10;54.80
49861;DHT22;35761;48.826;9.238;2022-10-31T15:52:31;17.00;54.80
49861;DHT22;35761;48.826;9.238;2022-10-31T15:55:04;17.00;55.20
49861;DHT22;35761;48.826;9.238;2022-10-31T15:57:46;17.00;55.90
49861;DHT22;35761;48.826;9.238;2022-10-31T16:00:24;16.90;55.10
49861;DHT22;35761;48.826;9.238;2022-10-31T16:05:52;16.80;55.90
49861;DHT22;35761;48.826;9.238;2022-10-31T16:08:33;16.80;55.70
49861;DHT22;35761;48.826;9.238;2022-10-31T16:11:17;16.70;55.60
49861;DHT22;35761;48.826;9.238;2022-10-31T16:13:56;16.70;55.50
49861;DHT22;35761;48.826;9.238;2022-10-31T16:16:26;16.70;55.90
49861;DHT22;35761;48.826;9.238;2022-10-31T16:19:03;16.70;55.40
49861;DHT22;35761;48.826;9.238;2022-10-31T16:21:35;16.60;55.00
49861;DHT22;35761;48.826;9.238;2022-10-31T16:24:13;16.60;55.80
49861;DHT22;35761;48.826;9.238;2022-10-31T16:26:48;16.60;55.80
49861;DHT22;35761;48.826;9.238;2022-10-31T16:29:27;16.50;55.40
49861;DHT22;35761;48.826;9.238;2022-10-31T16:32:00;16.50;56.00
49861;DHT22;35761;48.826;9.238;2022-10-31T16:34:28;16.40;56.90
49861;DHT22;35761;48.826;9.238;2022-10-31T16:36:57;16.40;56.70
49861;DHT22;35761;48.826;9.238;2022-10-31T16:39:25;16.40;56.80